createdAt,value
2023-03-24T00:01:44.275Z,99713.35
2023-03-24T00:04:16.655Z,99713.59
2023-03-24T00:06:56.917Z,99709.67
2023-03-24T00:09:25.638Z,99706.94
2023-03-24T00:11:59.601Z,99704.29
2023-03-24T00:14:30.215Z,99703.85
2023-03-24T00:17:18.589Z,99697.83
2023-03-24T00:19:48.522Z,99690.49
2023-03-24T00:22:22.041Z,99682.49
2023-03-24T00:24:50.626Z,99687.06
2023-03-24T00:27:23.788Z,99685.73
2023-03-24T00:29:59.128Z,99688.09
2023-03-24T00:32:46.458Z,99687.29
2023-03-24T00:35:18.789Z,99688.43
2023-03-24T00:37:51.629Z,99685.70
2023-03-24T00:40:24.063Z,99680.27
2023-03-24T00:43:03.312Z,99678.92
2023-03-24T00:45:46.062Z,99680.09
2023-03-24T00:48:28.232Z,99680.16
2023-03-24T00:51:02.654Z,99681.11
2023-03-24T00:53:37.600Z,99681.11
2023-03-24T00:56:14.248Z,99680.79
2023-03-24T00:58:49.944Z,99677.55
2023-03-24T01:01:32.908Z,99673.58
2023-03-24T01:04:10.240Z,99673.05
2023-03-24T01:06:47.316Z,99671.22
2023-03-24T01:09:21.305Z,99664.93
2023-03-24T01:11:56.922Z,99658.82
2023-03-24T01:14:31.354Z,99657.39
2023-03-24T01:17:00.655Z,99651.02
2023-03-24T01:19:32.854Z,99648.52
2023-03-24T01:22:09.888Z,99647.55
2023-03-24T01:24:52.644Z,99646.83
2023-03-24T01:27:25.751Z,99649.25
2023-03-24T01:30:04.133Z,99648.52
2023-03-24T01:32:37.601Z,99646.21
2023-03-24T01:35:12.231Z,99644.20
2023-03-24T01:37:47.105Z,99636.19
2023-03-24T01:40:29.698Z,99637.07
2023-03-24T01:43:11.583Z,99629.39
2023-03-24T01:46:18.125Z,99623.50
2023-03-24T01:49:07.321Z,99618.56
2023-03-24T01:51:45.143Z,99618.91
2023-03-24T01:54:33.396Z,99617.66
2023-03-24T01:57:23.373Z,99615.54
2023-03-24T02:00:07.248Z,99614.84
2023-03-24T02:03:18.336Z,99613.48
2023-03-24T02:06:02.026Z,99608.25
2023-03-24T02:08:50.907Z,99612.26
2023-03-24T02:11:28.137Z,99613.45
2023-03-24T02:14:08.078Z,99617.59
2023-03-24T02:17:18.615Z,99611.77
2023-03-24T02:20:40.589Z,99603.30
2023-03-24T02:23:45.739Z,99600.25
2023-03-24T02:26:48.071Z,99601.68
2023-03-24T02:30:10.083Z,99603.27
2023-03-24T02:33:13.712Z,99598.04
2023-03-24T02:36:34.739Z,99599.81
2023-03-24T02:39:37.981Z,99606.38
2023-03-24T02:42:42.574Z,99605.41
2023-03-24T02:45:35.363Z,99606.98
2023-03-24T02:48:42.694Z,99602.65
2023-03-24T02:51:53.232Z,99604.46
2023-03-24T02:55:11.491Z,99598.44
2023-03-24T02:57:54.878Z,99592.15
2023-03-24T03:01:36.139Z,99587.66
2023-03-24T03:04:42.620Z,99588.73
2023-03-24T03:07:24.401Z,99582.63
2023-03-24T03:13:02.215Z,99574.30
2023-03-24T03:15:39.951Z,99569.45
2023-03-24T03:18:25.164Z,99562.10
2023-03-24T03:21:13.653Z,99565.19
2023-03-24T03:23:51.136Z,99561.66
2023-03-24T03:26:37.937Z,99559.70
2023-03-24T03:29:26.623Z,99557.65
2023-03-24T03:32:20.600Z,99555.20
2023-03-24T03:35:16.244Z,99549.98
2023-03-24T03:38:00.351Z,99546.32
2023-03-24T03:41:07.564Z,99537.65
2023-03-24T03:43:38.325Z,99532.89
2023-03-24T03:46:10.624Z,99526.68
2023-03-24T03:48:45.851Z,99526.13
2023-03-24T03:51:21.983Z,99525.25
2023-03-24T03:54:13.493Z,99526.88
2023-03-24T03:56:53.951Z,99529.44
2023-03-24T03:59:35.138Z,99530.66
2023-03-24T04:02:58.686Z,99527.80
2023-03-24T04:05:50.371Z,99532.58
2023-03-24T04:08:50.367Z,99533.21
2023-03-24T04:12:21.124Z,99532.95
2023-03-24T04:15:34.814Z,99529.27
2023-03-24T04:18:49.437Z,99529.17
2023-03-24T04:21:53.611Z,99528.77
2023-03-24T04:24:54.372Z,99529.08
2023-03-24T04:27:56.514Z,99528.04
2023-03-24T04:30:34.351Z,99524.39
2023-03-24T04:33:57.910Z,99525.54
2023-03-24T04:36:50.133Z,99524.12
2023-03-24T04:39:44.862Z,99522.50
2023-03-24T04:42:36.081Z,99521.89
2023-03-24T04:45:09.500Z,99522.45
2023-03-24T04:48:15.343Z,99519.04
2023-03-24T04:51:18.436Z,99518.33
2023-03-24T04:53:59.993Z,99516.84
2023-03-24T04:56:37.940Z,99519.60
2023-03-24T04:59:17.774Z,99521.91
2023-03-24T05:01:52.431Z,99522.02
2023-03-24T05:04:37.785Z,99526.08
2023-03-24T05:07:15.038Z,99524.77
2023-03-24T05:09:51.793Z,99525.73
2023-03-24T05:12:40.397Z,99522.25
2023-03-24T05:15:34.783Z,99521.70
2023-03-24T05:18:17.019Z,99521.68
2023-03-24T05:20:50.310Z,99518.34
2023-03-24T05:23:21.880Z,99513.64
2023-03-24T05:25:58.353Z,99508.26
2023-03-24T05:28:28.046Z,99502.20
2023-03-24T05:31:09.980Z,99498.95
2023-03-24T05:33:53.303Z,99491.58
2023-03-24T05:36:30.119Z,99487.61
2023-03-24T05:39:05.117Z,99486.59
2023-03-24T05:41:47.529Z,99485.50
2023-03-24T05:44:21.551Z,99481.10
2023-03-24T05:47:07.013Z,99477.20
2023-03-24T05:49:47.808Z,99473.16
2023-03-24T05:52:21.391Z,99470.63
2023-03-24T05:55:03.841Z,99465.66
2023-03-24T05:57:46.709Z,99466.36
2023-03-24T06:00:24.342Z,99461.84
2023-03-24T06:03:05.548Z,99454.98
2023-03-24T06:05:47.765Z,99449.90
2023-03-24T06:08:41.278Z,99443.27
2023-03-24T06:11:25.383Z,99438.55
2023-03-24T06:14:18.727Z,99439.59
2023-03-24T06:17:08.357Z,99445.42
2023-03-24T06:19:49.286Z,99448.33
2023-03-24T06:22:34.304Z,99449.09
2023-03-24T06:25:20.655Z,99441.95
2023-03-24T06:28:14.772Z,99440.67
2023-03-24T06:31:25.963Z,99440.20
2023-03-24T06:33:58.295Z,99439.29
2023-03-24T06:36:54.018Z,99433.18
2023-03-24T06:39:56.248Z,99429.77
2023-03-24T06:42:33.611Z,99429.39
2023-03-24T06:45:13.495Z,99429.54
2023-03-24T06:47:59.265Z,99428.09
2023-03-24T06:50:41.159Z,99427.36
2023-03-24T06:53:19.470Z,99425.95
2023-03-24T06:55:54.860Z,99425.77
2023-03-24T06:58:43.932Z,99427.66
2023-03-24T07:01:30.166Z,99423.16
2023-03-24T07:04:25.151Z,99425.58
2023-03-24T07:07:19.089Z,99424.45
2023-03-24T07:09:47.609Z,99427.18
2023-03-24T07:12:16.678Z,99425.24
2023-03-24T07:14:44.932Z,99424.35
2023-03-24T07:17:15.767Z,99420.41
2023-03-24T07:20:07.988Z,99417.67
2023-03-24T07:22:42.410Z,99416.63
2023-03-24T07:25:29.150Z,99414.55
2023-03-24T07:28:07.732Z,99411.95
2023-03-24T07:30:40.903Z,99405.75
2023-03-24T07:33:11.468Z,99400.63
2023-03-24T07:35:40.452Z,99401.66
2023-03-24T07:38:09.717Z,99406.23
2023-03-24T07:40:43.498Z,99405.85
2023-03-24T07:43:24.816Z,99405.59
2023-03-24T07:46:24.681Z,99409.41
2023-03-24T07:49:24.068Z,99401.37
2023-03-24T07:52:13.802Z,99399.31
2023-03-24T07:54:59.973Z,99399.26
2023-03-24T07:57:55.256Z,99400.95
2023-03-24T08:00:34.262Z,99396.88
2023-03-24T08:03:38.366Z,99402.06
2023-03-24T08:06:38.566Z,99396.14
2023-03-24T08:09:16.668Z,99395.02
2023-03-24T08:12:04.346Z,99402.55
2023-03-24T08:14:57.823Z,99392.16
2023-03-24T08:17:48.593Z,99384.06
2023-03-24T08:20:24.097Z,99377.55
2023-03-24T08:23:49.978Z,99372.78
2023-03-24T08:26:06.789Z,99368.34
2023-03-24T08:28:39.217Z,99364.20
2023-03-24T08:31:09.231Z,99363.75
2023-03-24T08:33:41.584Z,99363.27
2023-03-24T08:36:10.342Z,99360.39
2023-03-24T08:38:45.735Z,99353.21
2023-03-24T08:41:19.934Z,99354.20
2023-03-24T08:43:48.672Z,99356.41
2023-03-24T08:46:17.353Z,99358.79
2023-03-24T08:48:50.936Z,99359.10
2023-03-24T08:51:21.931Z,99355.08
2023-03-24T08:53:53.396Z,99355.12
2023-03-24T08:56:22.390Z,99355.20
2023-03-24T08:58:53.256Z,99356.08
2023-03-24T09:01:24.299Z,99352.60
2023-03-24T09:03:52.439Z,99353.55
2023-03-24T09:06:20.308Z,99351.31
2023-03-24T09:08:51.352Z,99352.33
2023-03-24T09:11:21.575Z,99350.98
2023-03-24T09:13:49.577Z,99342.90
2023-03-24T09:16:18.958Z,99338.40
2023-03-24T09:18:47.174Z,99333.45
2023-03-24T09:21:15.644Z,99336.91
2023-03-24T09:23:43.896Z,99337.16
2023-03-24T09:26:11.979Z,99334.45
2023-03-24T09:28:43.252Z,99330.20
2023-03-24T09:31:18.188Z,99325.58
2023-03-24T09:33:57.798Z,99323.77
2023-03-24T09:36:31.083Z,99312.85
2023-03-24T09:39:04.193Z,99310.56
2023-03-24T09:41:34.468Z,99314.70
2023-03-24T09:44:12.448Z,99309.55
2023-03-24T09:47:28.602Z,99312.20
2023-03-24T09:50:33.429Z,99311.78
2023-03-24T09:53:43.676Z,99303.47
2023-03-24T09:56:24.667Z,99297.85
2023-03-24T09:59:22.704Z,99286.20
2023-03-24T10:01:53.944Z,99286.81
2023-03-24T10:04:27.120Z,99281.48
2023-03-24T10:07:27.759Z,99282.58
2023-03-24T10:10:01.876Z,99277.81
2023-03-24T10:12:48.098Z,99275.36
2023-03-24T10:16:07.625Z,99270.25
2023-03-24T10:19:17.754Z,99273.16
2023-03-24T10:22:29.458Z,99273.13
2023-03-24T10:25:38.186Z,99267.20
2023-03-24T10:28:59.302Z,99262.61
2023-03-24T10:31:42.645Z,99249.88
2023-03-24T10:34:13.728Z,99243.78
2023-03-24T10:37:09.188Z,99241.89
2023-03-24T10:39:49.845Z,99235.00
2023-03-24T10:42:35.741Z,99229.73
2023-03-24T10:45:51.123Z,99226.80
2023-03-24T10:48:43.685Z,99228.16
2023-03-24T10:51:34.832Z,99226.86
2023-03-24T10:54:33.032Z,99223.17
2023-03-24T10:57:18.648Z,99217.83
2023-03-24T11:00:29.277Z,99224.75
2023-03-24T11:03:17.820Z,99226.19
2023-03-24T11:05:48.832Z,99222.77
2023-03-24T11:08:39.853Z,99225.32
2023-03-24T11:11:33.595Z,99217.58
2023-03-24T11:14:23.586Z,99214.80
2023-03-24T11:17:14.968Z,99212.91
2023-03-24T11:20:06.090Z,99213.64
2023-03-24T11:22:48.600Z,99212.43
2023-03-24T11:25:21.260Z,99211.94
2023-03-24T11:28:04.946Z,99210.61
2023-03-24T11:31:06.122Z,99203.81
2023-03-24T11:34:06.478Z,99205.61
2023-03-24T11:37:01.641Z,99209.55
2023-03-24T11:39:37.598Z,99203.41
2023-03-24T11:42:31.688Z,99198.48
2023-03-24T11:45:37.780Z,99189.33
2023-03-24T11:48:51.226Z,99183.71
2023-03-24T11:51:44.721Z,99174.49
2023-03-24T11:54:36.633Z,99172.89
2023-03-24T11:57:45.203Z,99171.41
2023-03-24T12:01:13.787Z,99174.34
2023-03-24T12:04:19.693Z,99173.05
2023-03-24T12:07:28.937Z,99170.44
2023-03-24T12:10:38.965Z,99160.90
2023-03-24T12:13:33.122Z,99157.77
2023-03-24T12:19:26.213Z,99150.66
2023-03-24T12:22:18.905Z,99150.36
2023-03-24T12:25:40.074Z,99148.77
2023-03-24T12:28:24.957Z,99140.96
2023-03-24T12:31:48.902Z,99138.59
2023-03-24T12:34:55.276Z,99138.71
2023-03-24T12:37:59.434Z,99137.42
2023-03-24T12:41:14.025Z,99132.59
2023-03-24T12:44:39.475Z,99135.21
2023-03-24T12:47:51.953Z,99138.56
2023-03-24T12:50:42.677Z,99138.17
2023-03-24T12:54:04.981Z,99133.14
2023-03-24T12:56:45.759Z,99133.45
2023-03-24T12:59:32.822Z,99130.89
2023-03-24T13:02:34.042Z,99126.52
2023-03-24T13:05:16.156Z,99124.71
2023-03-24T13:07:47.584Z,99124.70
2023-03-24T13:10:34.167Z,99122.82
2023-03-24T13:13:23.087Z,99117.92
2023-03-24T13:16:05.190Z,99115.98
2023-03-24T13:19:02.961Z,99114.50
2023-03-24T13:21:37.523Z,99116.63
2023-03-24T13:24:15.989Z,99115.71
2023-03-24T13:27:11.601Z,99112.23
2023-03-24T13:30:11.449Z,99113.87
2023-03-24T13:32:57.971Z,99111.35
2023-03-24T13:36:09.470Z,99111.38
2023-03-24T13:38:53.811Z,99108.52
2023-03-24T13:41:32.075Z,99109.00
2023-03-24T13:44:20.926Z,99102.58
2023-03-24T13:47:21.367Z,99099.30
2023-03-24T13:50:17.302Z,99099.88
2023-03-24T13:52:50.344Z,99095.88
2023-03-24T13:55:39.649Z,99096.30
2023-03-24T13:58:29.087Z,99091.27
2023-03-24T14:01:34.323Z,99093.08
2023-03-24T14:05:05.558Z,99094.02
2023-03-24T14:07:46.776Z,99100.95
2023-03-24T14:10:23.813Z,99107.84
2023-03-24T14:13:07.852Z,99106.27
2023-03-24T14:15:58.005Z,99105.77
2023-03-24T14:18:27.798Z,99106.91
2023-03-24T14:21:09.608Z,99108.81
2023-03-24T14:24:04.292Z,99107.99
2023-03-24T14:26:56.740Z,99108.84
2023-03-24T14:29:53.916Z,99109.08
2023-03-24T14:32:32.617Z,99108.59
2023-03-24T14:35:10.482Z,99110.34
2023-03-24T14:37:56.964Z,99111.39
2023-03-24T14:41:07.291Z,99102.86
2023-03-24T14:43:49.072Z,99103.22
2023-03-24T14:47:02.417Z,99096.22
2023-03-24T14:49:48.327Z,99095.42
2023-03-24T14:52:31.172Z,99092.14
2023-03-24T14:55:24.869Z,99097.11
2023-03-24T14:58:03.627Z,99093.58
2023-03-24T15:04:04.973Z,99089.08
2023-03-24T15:06:49.063Z,99091.89
2023-03-24T15:09:28.434Z,99093.39
2023-03-24T15:12:24.716Z,99096.96
2023-03-24T15:15:06.282Z,99092.59
2023-03-24T15:17:49.140Z,99082.58
2023-03-24T15:20:37.755Z,99086.00
2023-03-24T15:23:29.874Z,99086.95
2023-03-24T15:26:11.739Z,99087.42
2023-03-24T15:28:45.282Z,99082.23
2023-03-24T15:31:17.762Z,99079.95
2023-03-24T15:33:54.741Z,99078.27
2023-03-24T15:37:01.878Z,99079.52
2023-03-24T15:40:15.648Z,99077.36
2023-03-24T15:43:11.064Z,99071.73
2023-03-24T15:46:11.797Z,99065.41
2023-03-24T15:49:04.357Z,99061.32
2023-03-24T15:52:15.873Z,99059.99
2023-03-24T15:55:08.867Z,99057.25
2023-03-24T15:57:53.991Z,99057.48
2023-03-24T16:00:45.663Z,99061.61
2023-03-24T16:03:19.322Z,99057.73
2023-03-24T16:06:08.821Z,99052.44
2023-03-24T16:08:45.497Z,99054.13
2023-03-24T16:11:37.252Z,99049.75
2023-03-24T16:14:43.976Z,99049.82
2023-03-24T16:17:23.371Z,99045.27
2023-03-24T16:20:00.433Z,99037.20
2023-03-24T16:22:38.294Z,99032.64
2023-03-24T16:25:09.034Z,99037.92
2023-03-24T16:27:45.665Z,99041.95
2023-03-24T16:30:37.317Z,99039.09
2023-03-24T16:33:22.615Z,99042.36
2023-03-24T16:35:57.251Z,99044.13
2023-03-24T16:38:31.968Z,99048.35
2023-03-24T16:41:20.851Z,99046.55
2023-03-24T16:44:00.477Z,99040.04
2023-03-24T16:46:55.990Z,99036.94
2023-03-24T16:49:50.642Z,99042.66
2023-03-24T16:52:35.364Z,99040.71
2023-03-24T16:55:26.481Z,99035.82
2023-03-24T16:58:03.768Z,99042.41
2023-03-24T17:00:47.712Z,99045.77
2023-03-24T17:03:32.041Z,99052.92
2023-03-24T17:06:13.953Z,99053.44
2023-03-24T17:08:45.051Z,99051.79
2023-03-24T17:11:39.768Z,99049.75
2023-03-24T17:14:14.428Z,99052.85
2023-03-24T17:16:50.337Z,99052.49
2023-03-24T17:19:25.514Z,99056.59
2023-03-24T17:22:09.952Z,99061.27
2023-03-24T17:24:50.768Z,99061.94
2023-03-24T17:27:28.683Z,99060.77
2023-03-24T17:29:58.739Z,99062.98
2023-03-24T17:32:36.194Z,99066.79
2023-03-24T17:35:24.931Z,99068.83
2023-03-24T17:37:58.568Z,99069.98
2023-03-24T17:40:30.549Z,99073.02
2023-03-24T17:43:00.120Z,99071.71
2023-03-24T17:45:36.626Z,99075.70
2023-03-24T17:48:07.527Z,99086.30
2023-03-24T17:50:40.891Z,99129.62
2023-03-24T17:53:28.080Z,99164.15
2023-03-24T17:56:06.729Z,99164.39
2023-03-24T17:58:36.338Z,99162.67
2023-03-24T18:01:15.788Z,99170.25
2023-03-24T18:03:57.540Z,99172.58
2023-03-24T18:06:30.902Z,99176.50
2023-03-24T18:09:07.226Z,99181.17
2023-03-24T18:11:47.325Z,99180.75
2023-03-24T18:14:45.473Z,99186.98
2023-03-24T18:17:15.672Z,99193.63
2023-03-24T18:19:54.560Z,99198.72
2023-03-24T18:22:25.029Z,99207.42
2023-03-24T18:25:19.555Z,99212.92
2023-03-24T18:27:55.388Z,99215.38
2023-03-24T18:30:35.211Z,99224.96
2023-03-24T18:33:11.352Z,99236.89
2023-03-24T18:35:49.744Z,99251.45
2023-03-24T18:38:24.315Z,99257.95
2023-03-24T18:41:10.136Z,99256.09
2023-03-24T18:43:41.695Z,99255.46
2023-03-24T18:46:23.934Z,99257.75
2023-03-24T18:48:52.866Z,99258.20
2023-03-24T18:51:27.822Z,99249.80
2023-03-24T18:54:03.975Z,99247.69
2023-03-24T18:56:36.467Z,99230.83
2023-03-24T18:59:07.972Z,99225.56
2023-03-24T19:01:36.450Z,99222.75
2023-03-24T19:04:10.381Z,99223.21
2023-03-24T19:06:46.877Z,99225.08
2023-03-24T19:09:26.476Z,99216.05
2023-03-24T19:11:55.178Z,99214.31
2023-03-24T19:14:26.269Z,99213.73
2023-03-24T19:16:55.866Z,99214.61
2023-03-24T19:19:27.366Z,99206.47
2023-03-24T19:21:59.817Z,99204.31
2023-03-24T19:24:29.819Z,99202.13
2023-03-24T19:27:07.969Z,99202.70
2023-03-24T19:29:37.104Z,99200.69
2023-03-24T19:32:07.079Z,99204.18
2023-03-24T19:34:38.336Z,99216.50
2023-03-24T19:37:26.706Z,99229.05
2023-03-24T19:40:01.858Z,99240.67
2023-03-24T19:42:33.665Z,99246.17
2023-03-24T19:45:02.938Z,99244.96
2023-03-24T19:47:40.036Z,99246.27
2023-03-24T19:50:31.668Z,99249.81
2023-03-24T19:53:00.875Z,99249.67
2023-03-24T19:55:33.685Z,99252.94
2023-03-24T19:58:05.367Z,99258.08
2023-03-24T20:00:37.047Z,99261.45
2023-03-24T20:03:12.981Z,99258.96
2023-03-24T20:05:45.697Z,99258.30
2023-03-24T20:08:18.737Z,99256.45
2023-03-24T20:11:04.415Z,99253.77
2023-03-24T20:13:40.193Z,99248.67
2023-03-24T20:16:24.806Z,99238.70
2023-03-24T20:18:58.608Z,99240.73
2023-03-24T20:21:31.932Z,99241.98
2023-03-24T20:24:03.725Z,99245.09
2023-03-24T20:26:38.266Z,99240.95
2023-03-24T20:29:11.473Z,99245.30
2023-03-24T20:31:49.863Z,99246.90
2023-03-24T20:34:21.493Z,99248.64
2023-03-24T20:37:09.781Z,99254.96
2023-03-24T20:39:46.064Z,99262.25
2023-03-24T20:42:16.899Z,99260.23
2023-03-24T20:44:48.026Z,99248.48
2023-03-24T20:47:20.496Z,99259.05
2023-03-24T20:49:56.670Z,99257.69
2023-03-24T20:52:32.371Z,99253.76
2023-03-24T20:55:18.041Z,99256.83
2023-03-24T20:57:47.300Z,99266.86
2023-03-24T21:00:21.299Z,99273.77
2023-03-24T21:02:52.967Z,99275.09
2023-03-24T21:05:24.162Z,99272.23
2023-03-24T21:07:55.849Z,99271.33
2023-03-24T21:10:29.586Z,99274.05
2023-03-24T21:13:01.839Z,99272.23
2023-03-24T21:15:31.432Z,99274.73
2023-03-24T21:18:00.450Z,99287.77
2023-03-24T21:20:31.052Z,99283.44
2023-03-24T21:23:08.401Z,99280.84
2023-03-24T21:25:39.900Z,99282.46
2023-03-24T21:28:18.051Z,99284.64
2023-03-24T21:30:54.105Z,99286.28
2023-03-24T21:33:27.922Z,99290.27
2023-03-24T21:36:04.023Z,99286.74
2023-03-24T21:38:46.532Z,99285.95
2023-03-24T21:41:38.595Z,99293.66
2023-03-24T21:44:16.972Z,99291.98
2023-03-24T21:46:47.381Z,99289.24
2023-03-24T21:49:21.979Z,99296.23
2023-03-24T21:51:56.989Z,99305.04
2023-03-24T21:54:34.158Z,99301.88
2023-03-24T21:57:08.654Z,99296.66
2023-03-24T21:59:48.352Z,99302.87
2023-03-24T22:02:27.435Z,99308.97
2023-03-24T22:05:10.726Z,99315.78
2023-03-24T22:07:54.045Z,99322.40
2023-03-24T22:10:29.167Z,99315.79
2023-03-24T22:12:58.223Z,99307.36
2023-03-24T22:15:32.432Z,99300.39
2023-03-24T22:18:06.376Z,99306.86
2023-03-24T22:20:39.904Z,99307.27
2023-03-24T22:23:11.310Z,99307.27
2023-03-24T22:25:45.677Z,99309.26
2023-03-24T22:28:24.263Z,99310.84
2023-03-24T22:31:15.658Z,99315.55
2023-03-24T22:33:47.007Z,99305.27
2023-03-24T22:36:23.709Z,99301.20
2023-03-24T22:38:54.693Z,99298.13
2023-03-24T22:41:31.296Z,99297.09
2023-03-24T22:44:07.986Z,99296.40
2023-03-24T22:46:45.008Z,99298.23
2023-03-24T22:49:14.156Z,99299.13
2023-03-24T22:51:44.913Z,99300.63
2023-03-24T22:54:23.113Z,99299.17
2023-03-24T22:57:02.076Z,99299.73
2023-03-24T22:59:39.529Z,99301.95
2023-03-24T23:02:12.023Z,99305.17
2023-03-24T23:04:50.771Z,99312.05
2023-03-24T23:07:27.930Z,99315.94
2023-03-24T23:10:01.697Z,99313.14
2023-03-24T23:12:39.992Z,99313.77
2023-03-24T23:15:13.920Z,99311.93
2023-03-24T23:17:45.616Z,99309.38
2023-03-24T23:20:17.424Z,99321.30
2023-03-24T23:22:57.582Z,99329.06
2023-03-24T23:25:31.096Z,99329.30
2023-03-24T23:28:06.156Z,99330.38
2023-03-24T23:30:44.805Z,99326.66
2023-03-24T23:33:25.842Z,99328.20
2023-03-24T23:36:09.687Z,99335.70
2023-03-24T23:38:44.466Z,99339.52
2023-03-24T23:41:21.760Z,99337.54
2023-03-24T23:43:57.692Z,99334.35
2023-03-24T23:46:43.434Z,99339.45
2023-03-24T23:49:21.508Z,99341.95
2023-03-24T23:51:58.608Z,99342.60
2023-03-24T23:54:34.155Z,99340.55
2023-03-24T23:57:02.915Z,99334.36
2023-03-24T23:59:36.733Z,99339.61
